createdAt,value
2022-10-22T00:01:10.877Z,10.00
2022-10-22T00:03:38.966Z,10.10
2022-10-22T00:06:07.561Z,10.20
2022-10-22T00:08:37.076Z,10.50
2022-10-22T00:11:13.471Z,10.60
2022-10-22T00:13:41.766Z,10.70
2022-10-22T00:16:10.070Z,10.80
2022-10-22T00:18:38.255Z,10.90
2022-10-22T00:21:07.167Z,11.00
2022-10-22T00:23:36.746Z,11.10
2022-10-22T00:26:04.842Z,11.10
2022-10-22T00:28:32.846Z,11.10
2022-10-22T00:31:01.761Z,11.20
2022-10-22T00:33:30.281Z,11.20
2022-10-22T00:35:58.439Z,11.30
2022-10-22T00:38:26.591Z,11.20
2022-10-22T00:40:56.657Z,11.20
2022-10-22T00:43:24.778Z,11.20
2022-10-22T00:45:52.873Z,11.10
2022-10-22T00:48:26.849Z,11.10
2022-10-22T00:50:57.931Z,11.20
2022-10-22T00:53:30.114Z,11.30
2022-10-22T00:56:00.037Z,11.30
2022-10-22T00:58:32.352Z,11.30
2022-10-22T01:01:00.622Z,11.40
2022-10-22T01:03:29.269Z,11.40
2022-10-22T01:05:59.368Z,11.50
2022-10-22T01:08:35.829Z,11.50
2022-10-22T01:11:14.473Z,11.50
2022-10-22T01:13:53.850Z,11.40
2022-10-22T01:16:30.142Z,11.40
2022-10-22T01:19:10.095Z,11.40
2022-10-22T01:21:43.724Z,11.50
2022-10-22T01:24:35.318Z,11.40
2022-10-22T01:27:22.198Z,11.40
2022-10-22T01:29:54.431Z,11.40
2022-10-22T01:32:24.818Z,11.50
2022-10-22T01:34:57.411Z,11.40
2022-10-22T01:37:29.410Z,11.50
2022-10-22T01:39:59.097Z,11.50
2022-10-22T01:42:27.423Z,11.50
2022-10-22T01:44:56.826Z,11.50
2022-10-22T01:47:40.491Z,11.50
2022-10-22T01:50:48.846Z,11.60
2022-10-22T01:53:26.726Z,11.60
2022-10-22T01:56:08.883Z,11.60
2022-10-22T01:58:44.434Z,11.60
2022-10-22T02:01:20.492Z,11.60
2022-10-22T02:03:57.154Z,11.60
2022-10-22T02:06:27.385Z,11.60
2022-10-22T02:08:57.077Z,11.60
2022-10-22T02:11:25.220Z,11.60
2022-10-22T02:13:57.502Z,11.70
2022-10-22T02:16:31.710Z,11.70
2022-10-22T02:19:02.984Z,11.80
2022-10-22T02:21:32.214Z,11.70
2022-10-22T02:24:00.411Z,11.80
2022-10-22T02:26:33.891Z,11.80
2022-10-22T02:29:08.099Z,11.80
2022-10-22T02:31:41.100Z,11.80
2022-10-22T02:34:14.090Z,11.80
2022-10-22T02:36:48.061Z,11.80
2022-10-22T02:39:20.249Z,11.90
2022-10-22T02:41:49.280Z,11.80
2022-10-22T02:44:17.333Z,11.80
2022-10-22T02:46:46.779Z,11.70
2022-10-22T02:49:14.908Z,11.70
2022-10-22T02:51:43.177Z,11.70
2022-10-22T02:54:11.322Z,11.60
2022-10-22T02:56:39.364Z,11.60
2022-10-22T02:59:07.451Z,11.60
2022-10-22T03:01:35.799Z,11.60
2022-10-22T03:04:05.876Z,11.60
2022-10-22T03:06:33.888Z,11.60
2022-10-22T03:09:02.007Z,11.60
2022-10-22T03:11:30.300Z,11.60
2022-10-22T03:13:58.496Z,11.60
2022-10-22T03:16:26.628Z,11.60
2022-10-22T03:18:54.957Z,11.60
2022-10-22T03:21:30.961Z,11.60
2022-10-22T03:24:00.756Z,11.60
2022-10-22T03:26:28.914Z,11.60
2022-10-22T03:28:57.270Z,11.50
2022-10-22T03:31:25.391Z,11.50
2022-10-22T03:33:53.671Z,11.50
2022-10-22T03:36:21.762Z,11.50
2022-10-22T03:38:51.240Z,11.40
2022-10-22T03:41:19.287Z,11.40
2022-10-22T03:43:51.463Z,11.40
2022-10-22T03:46:19.598Z,11.40
2022-10-22T03:48:48.193Z,11.30
2022-10-22T03:51:16.400Z,11.30
2022-10-22T03:53:44.355Z,11.30
2022-10-22T03:56:15.026Z,11.30
2022-10-22T03:58:43.116Z,11.30
2022-10-22T04:01:12.868Z,11.30
2022-10-22T04:03:41.744Z,11.30
2022-10-22T04:06:11.863Z,11.40
2022-10-22T04:08:41.107Z,11.40
2022-10-22T04:11:09.740Z,11.40
2022-10-22T04:13:39.249Z,11.50
2022-10-22T04:16:11.570Z,11.50
2022-10-22T04:18:40.819Z,11.40
2022-10-22T04:21:10.621Z,11.50
2022-10-22T04:23:39.650Z,11.50
2022-10-22T04:26:09.094Z,11.50
2022-10-22T04:28:38.704Z,11.50
2022-10-22T04:31:10.004Z,11.50
2022-10-22T04:33:38.676Z,11.50
2022-10-22T04:36:11.795Z,11.50
2022-10-22T04:38:39.859Z,11.50
2022-10-22T04:41:13.227Z,11.50
2022-10-22T04:43:42.997Z,11.50
2022-10-22T04:46:12.521Z,11.50
2022-10-22T04:48:43.122Z,11.50
2022-10-22T04:51:13.832Z,11.50
2022-10-22T04:53:42.097Z,11.60
2022-10-22T04:56:12.192Z,11.60
2022-10-22T04:58:42.209Z,11.60
2022-10-22T05:01:12.057Z,11.60
2022-10-22T05:03:40.371Z,11.60
2022-10-22T05:06:09.092Z,11.70
2022-10-22T05:08:37.469Z,11.80
2022-10-22T05:11:12.589Z,11.80
2022-10-22T05:13:42.164Z,11.80
2022-10-22T05:16:10.256Z,11.80
2022-10-22T05:18:38.902Z,11.90
2022-10-22T05:21:10.654Z,11.90
2022-10-22T05:23:38.716Z,11.90
2022-10-22T05:26:07.853Z,11.90
2022-10-22T05:28:36.721Z,12.00
2022-10-22T05:31:07.382Z,12.00
2022-10-22T05:33:36.058Z,12.00
2022-10-22T05:36:06.142Z,12.00
2022-10-22T05:38:34.705Z,12.00
2022-10-22T05:41:04.158Z,12.00
2022-10-22T05:43:32.247Z,12.10
2022-10-22T05:46:04.065Z,12.10
2022-10-22T05:48:33.643Z,12.10
2022-10-22T05:51:05.686Z,12.10
2022-10-22T05:53:34.998Z,12.10
2022-10-22T05:56:03.865Z,12.10
2022-10-22T05:58:32.007Z,12.10
2022-10-22T06:01:04.001Z,12.10
2022-10-22T06:03:33.498Z,12.10
2022-10-22T06:06:02.994Z,12.10
2022-10-22T06:08:31.745Z,12.10
2022-10-22T06:10:59.913Z,12.10
2022-10-22T06:13:27.934Z,12.10
2022-10-22T06:15:56.136Z,12.10
2022-10-22T06:18:24.088Z,12.10
2022-10-22T06:20:53.582Z,12.10
2022-10-22T06:23:21.615Z,12.10
2022-10-22T06:25:57.888Z,12.00
2022-10-22T06:28:26.024Z,12.00
2022-10-22T06:30:54.170Z,12.10
2022-10-22T06:33:22.232Z,12.10
2022-10-22T06:35:50.221Z,12.00
2022-10-22T06:38:20.014Z,12.00
2022-10-22T06:40:48.605Z,12.00
2022-10-22T06:43:16.795Z,12.00
2022-10-22T06:45:44.780Z,12.00
2022-10-22T06:48:12.892Z,12.00
2022-10-22T06:50:41.734Z,12.00
2022-10-22T06:53:10.337Z,11.90
2022-10-22T06:55:39.912Z,11.90
2022-10-22T06:58:08.175Z,11.80
2022-10-22T07:00:36.218Z,11.80
2022-10-22T07:03:04.477Z,11.80
2022-10-22T07:05:35.095Z,11.80
2022-10-22T07:08:03.111Z,11.80
2022-10-22T07:10:31.403Z,11.80
2022-10-22T07:13:01.030Z,11.80
2022-10-22T07:15:29.091Z,11.80
2022-10-22T07:17:57.053Z,11.80
2022-10-22T07:20:25.183Z,11.80
2022-10-22T07:22:53.164Z,11.80
2022-10-22T07:25:21.129Z,11.80
2022-10-22T07:27:49.197Z,11.80
2022-10-22T07:30:18.697Z,11.80
2022-10-22T07:32:46.746Z,11.80
2022-10-22T07:35:15.061Z,11.80
2022-10-22T07:37:43.557Z,11.80
2022-10-22T07:40:12.354Z,11.80
2022-10-22T07:42:40.491Z,11.80
2022-10-22T07:45:09.909Z,11.80
2022-10-22T07:47:39.648Z,11.80
2022-10-22T07:50:08.756Z,11.70
2022-10-22T07:52:37.105Z,11.80
2022-10-22T07:55:06.001Z,11.80
2022-10-22T07:57:34.084Z,11.70
2022-10-22T08:00:02.325Z,11.70
2022-10-22T08:02:41.326Z,11.80
2022-10-22T08:05:10.293Z,11.80
2022-10-22T08:07:38.593Z,11.80
2022-10-22T08:10:07.970Z,11.80
2022-10-22T08:12:35.973Z,11.80
2022-10-22T08:15:04.818Z,11.90
2022-10-22T08:17:32.812Z,12.00
2022-10-22T08:20:02.380Z,12.20
2022-10-22T08:22:30.390Z,12.40
2022-10-22T08:24:59.152Z,12.50
2022-10-22T08:27:27.277Z,12.60
2022-10-22T08:29:55.330Z,12.80
2022-10-22T08:32:23.402Z,12.80
2022-10-22T08:34:51.549Z,12.90
2022-10-22T08:37:21.323Z,13.00
2022-10-22T08:39:49.610Z,13.20
2022-10-22T08:42:46.341Z,13.40
2022-10-22T08:45:16.578Z,13.60
2022-10-22T08:48:00.811Z,13.80
2022-10-22T08:50:34.886Z,14.00
2022-10-22T08:53:09.001Z,14.00
2022-10-22T08:55:38.379Z,13.90
2022-10-22T08:58:20.321Z,13.80
2022-10-22T09:00:56.073Z,13.80
2022-10-22T09:03:28.755Z,13.60
2022-10-22T09:06:05.661Z,13.60
2022-10-22T09:08:37.445Z,13.60
2022-10-22T09:11:15.366Z,13.70
2022-10-22T09:13:46.434Z,13.70
2022-10-22T09:16:21.798Z,13.90
2022-10-22T09:19:04.017Z,14.20
2022-10-22T09:21:41.862Z,14.30
2022-10-22T09:24:17.469Z,14.40
2022-10-22T09:26:45.563Z,14.60
2022-10-22T09:29:19.020Z,14.70
2022-10-22T09:31:47.707Z,15.00
2022-10-22T09:34:16.735Z,15.00
2022-10-22T09:36:44.790Z,15.30
2022-10-22T09:39:29.071Z,15.60
2022-10-22T09:41:57.159Z,16.00
2022-10-22T09:44:25.674Z,16.20
2022-10-22T09:46:54.033Z,16.30
2022-10-22T09:49:24.843Z,16.50
2022-10-22T09:51:55.779Z,16.60
2022-10-22T09:54:27.847Z,16.80
2022-10-22T09:56:58.625Z,16.90
2022-10-22T09:59:30.461Z,16.90
2022-10-22T10:02:13.434Z,16.90
2022-10-22T10:04:51.180Z,16.80
2022-10-22T10:07:21.174Z,16.70
2022-10-22T10:09:51.507Z,16.90
2022-10-22T10:12:34.871Z,17.40
2022-10-22T10:15:14.798Z,17.50
2022-10-22T10:17:50.992Z,17.40
2022-10-22T10:20:30.873Z,17.30
2022-10-22T10:23:04.874Z,17.10
2022-10-22T10:25:42.189Z,17.10
2022-10-22T10:28:30.148Z,17.20
2022-10-22T10:31:07.950Z,17.10
2022-10-22T10:33:45.836Z,17.10
2022-10-22T10:36:20.337Z,17.00
2022-10-22T10:38:59.838Z,16.90
2022-10-22T10:41:40.158Z,17.00
2022-10-22T10:44:35.214Z,16.90
2022-10-22T10:47:17.717Z,16.80
2022-10-22T10:49:46.100Z,16.80
2022-10-22T10:52:23.077Z,16.80
2022-10-22T10:55:00.761Z,16.90
2022-10-22T10:57:41.087Z,16.70
2022-10-22T11:00:12.781Z,16.50
2022-10-22T11:03:10.645Z,16.60
2022-10-22T11:05:44.974Z,16.60
2022-10-22T11:08:20.160Z,16.50
2022-10-22T11:10:51.612Z,16.20
2022-10-22T11:13:28.258Z,16.00
2022-10-22T11:16:02.312Z,15.90
2022-10-22T11:18:34.980Z,15.90
2022-10-22T11:21:14.405Z,15.80
2022-10-22T11:23:47.223Z,15.80
2022-10-22T11:26:26.934Z,15.90
2022-10-22T11:28:59.711Z,16.00
2022-10-22T11:31:29.757Z,16.00
2022-10-22T11:34:28.384Z,16.00
2022-10-22T11:36:55.525Z,16.00
2022-10-22T11:39:41.696Z,16.10
2022-10-22T11:42:12.667Z,16.00
2022-10-22T11:47:27.241Z,16.20
2022-10-22T11:50:03.694Z,16.20
2022-10-22T11:52:49.037Z,16.20
2022-10-22T11:55:45.901Z,16.30
2022-10-22T11:58:43.865Z,16.30
2022-10-22T12:01:43.514Z,16.50
2022-10-22T12:04:23.499Z,16.50
2022-10-22T12:06:58.596Z,16.40
2022-10-22T12:09:30.359Z,16.40
2022-10-22T12:12:05.851Z,16.50
2022-10-22T12:14:41.703Z,16.50
2022-10-22T12:17:12.098Z,16.50
2022-10-22T12:19:43.225Z,16.50
2022-10-22T12:22:16.405Z,16.60
2022-10-22T12:24:46.751Z,16.60
2022-10-22T12:27:23.314Z,16.50
2022-10-22T12:29:56.712Z,16.50
2022-10-22T12:32:34.988Z,16.50
2022-10-22T12:35:07.653Z,16.30
2022-10-22T12:37:37.026Z,16.20
2022-10-22T12:40:18.148Z,16.30
2022-10-22T12:42:49.634Z,16.40
2022-10-22T12:45:18.007Z,16.50
2022-10-22T12:47:53.582Z,16.50
2022-10-22T12:50:26.122Z,16.50
2022-10-22T12:52:56.183Z,16.50
2022-10-22T12:55:27.196Z,16.50
2022-10-22T12:57:55.454Z,16.60
2022-10-22T13:00:26.546Z,16.60
2022-10-22T13:02:58.716Z,16.50
2022-10-22T13:05:28.533Z,16.60
2022-10-22T13:08:04.297Z,16.60
2022-10-22T13:10:33.122Z,16.60
2022-10-22T13:13:03.338Z,16.60
2022-10-22T13:15:39.298Z,16.70
2022-10-22T13:18:18.120Z,16.80
2022-10-22T13:20:57.687Z,16.70
2022-10-22T13:23:28.328Z,16.80
2022-10-22T13:26:02.153Z,16.80
2022-10-22T13:28:31.771Z,16.90
2022-10-22T13:31:01.810Z,16.80
2022-10-22T13:33:35.925Z,16.80
2022-10-22T13:36:04.542Z,16.90
2022-10-22T13:38:32.908Z,16.90
2022-10-22T13:41:03.274Z,16.90
2022-10-22T13:43:31.305Z,16.90
2022-10-22T13:46:00.809Z,16.80
2022-10-22T13:48:30.902Z,16.80
2022-10-22T13:51:00.716Z,16.90
2022-10-22T13:53:30.325Z,16.70
2022-10-22T13:55:59.055Z,16.60
2022-10-22T13:58:27.269Z,16.50
2022-10-22T14:00:58.020Z,16.50
2022-10-22T14:03:29.486Z,16.40
2022-10-22T14:05:58.212Z,16.20
2022-10-22T14:08:30.395Z,16.30
2022-10-22T14:10:58.905Z,16.40
2022-10-22T14:13:27.372Z,16.40
2022-10-22T14:15:55.637Z,16.40
2022-10-22T14:18:28.685Z,16.30
2022-10-22T14:20:59.968Z,16.30
2022-10-22T14:23:32.543Z,16.30
2022-10-22T14:26:01.647Z,16.30
2022-10-22T14:28:34.215Z,16.30
2022-10-22T14:31:12.117Z,16.20
2022-10-22T14:33:41.485Z,16.20
2022-10-22T14:36:12.565Z,16.10
2022-10-22T14:38:42.240Z,16.10
2022-10-22T14:41:18.583Z,16.00
2022-10-22T14:43:46.999Z,15.90
2022-10-22T14:46:16.671Z,15.90
2022-10-22T14:48:45.231Z,15.70
2022-10-22T14:51:15.527Z,15.60
2022-10-22T14:53:46.084Z,15.40
2022-10-22T14:56:16.482Z,15.30
2022-10-22T14:58:45.646Z,15.10
2022-10-22T15:01:14.230Z,14.90
2022-10-22T15:03:42.340Z,14.80
2022-10-22T15:06:10.412Z,14.60
2022-10-22T15:08:39.475Z,14.60
2022-10-22T15:11:12.595Z,14.70
2022-10-22T15:13:41.510Z,14.70
2022-10-22T15:16:11.563Z,14.70
2022-10-22T15:18:39.666Z,14.70
2022-10-22T15:21:10.215Z,14.70
2022-10-22T15:23:39.338Z,14.70
2022-10-22T15:26:10.467Z,14.60
2022-10-22T15:28:39.451Z,14.40
2022-10-22T15:31:08.673Z,14.20
2022-10-22T15:33:36.796Z,14.10
2022-10-22T15:36:12.550Z,13.80
2022-10-22T15:38:40.958Z,13.70
2022-10-22T15:41:13.629Z,13.50
2022-10-22T15:43:42.112Z,13.30
2022-10-22T15:46:13.142Z,13.10
2022-10-22T15:48:41.592Z,13.00
2022-10-22T15:51:11.650Z,12.80
2022-10-22T15:53:40.012Z,12.60
2022-10-22T15:56:08.652Z,12.50
2022-10-22T15:58:38.232Z,12.40
2022-10-22T16:01:07.464Z,12.20
2022-10-22T16:03:36.083Z,12.10
2022-10-22T16:06:05.593Z,11.90
2022-10-22T16:08:34.249Z,11.80
2022-10-22T16:11:02.431Z,11.80
2022-10-22T16:13:31.045Z,11.60
2022-10-22T16:16:00.430Z,11.50
2022-10-22T16:18:28.498Z,11.40
2022-10-22T16:20:56.804Z,11.40
2022-10-22T16:23:25.054Z,11.20
2022-10-22T16:25:53.147Z,11.10
2022-10-22T16:28:21.301Z,11.10
2022-10-22T16:30:49.541Z,11.10
2022-10-22T16:33:19.158Z,11.10
2022-10-22T16:35:49.348Z,11.10
2022-10-22T16:38:18.986Z,11.20
2022-10-22T16:40:47.352Z,11.20
2022-10-22T16:43:15.561Z,11.20
2022-10-22T16:45:49.141Z,11.30
2022-10-22T16:48:19.574Z,11.10
2022-10-22T16:50:47.582Z,11.00
2022-10-22T16:53:15.637Z,11.00
2022-10-22T16:55:43.788Z,11.00
2022-10-22T16:58:11.977Z,10.90
2022-10-22T17:00:40.019Z,10.80
2022-10-22T17:03:08.175Z,10.90
2022-10-22T17:05:38.152Z,10.90
2022-10-22T17:08:06.590Z,10.80
2022-10-22T17:10:36.652Z,10.80
2022-10-22T17:13:05.456Z,10.80
2022-10-22T17:15:33.785Z,10.80
2022-10-22T17:18:04.043Z,10.80
2022-10-22T17:20:32.090Z,10.80
2022-10-22T17:23:01.500Z,10.70
2022-10-22T17:25:37.995Z,10.70
2022-10-22T17:28:07.451Z,10.60
2022-10-22T17:30:38.873Z,10.50
2022-10-22T17:33:07.150Z,10.40
2022-10-22T17:35:35.477Z,10.40
2022-10-22T17:38:06.436Z,10.30
2022-10-22T17:40:37.862Z,10.30
2022-10-22T17:43:06.093Z,10.20
2022-10-22T17:45:34.176Z,10.20
2022-10-22T17:48:02.933Z,10.20
2022-10-22T17:50:30.959Z,10.10
2022-10-22T17:52:59.036Z,10.10
2022-10-22T17:55:29.378Z,10.10
2022-10-22T17:57:57.620Z,10.00
2022-10-22T18:00:25.789Z,10.10
2022-10-22T18:02:54.039Z,10.10
2022-10-22T18:05:22.271Z,10.20
2022-10-22T18:07:50.458Z,10.30
2022-10-22T18:11:21.052Z,10.30
2022-10-22T18:13:52.181Z,10.40
2022-10-22T18:16:20.797Z,10.50
2022-10-22T18:18:50.130Z,10.60
2022-10-22T18:21:18.936Z,10.60
2022-10-22T18:23:47.657Z,10.70
2022-10-22T18:26:17.958Z,10.70
2022-10-22T18:28:48.719Z,10.80
2022-10-22T18:31:20.392Z,10.80
2022-10-22T18:33:49.550Z,10.90
2022-10-22T18:36:20.112Z,10.90
2022-10-22T18:38:51.472Z,11.00
2022-10-22T18:41:20.073Z,11.00
2022-10-22T18:43:51.839Z,11.10
2022-10-22T18:46:22.218Z,11.10
2022-10-22T18:48:50.579Z,11.10
2022-10-22T18:51:18.749Z,11.10
2022-10-22T18:53:59.068Z,11.10
2022-10-22T18:56:33.619Z,11.10
2022-10-22T18:59:01.674Z,11.20
2022-10-22T19:01:31.403Z,11.20
2022-10-22T19:03:59.712Z,11.20
2022-10-22T19:06:30.559Z,11.30
2022-10-22T19:09:02.374Z,11.30
2022-10-22T19:11:30.474Z,11.30
2022-10-22T19:13:59.028Z,11.40
2022-10-22T19:16:28.516Z,11.50
2022-10-22T19:19:03.264Z,11.50
2022-10-22T19:21:31.835Z,11.60
2022-10-22T19:24:01.579Z,11.70
2022-10-22T19:26:31.281Z,11.70
2022-10-22T19:29:00.595Z,11.70
2022-10-22T19:31:31.489Z,11.80
2022-10-22T19:34:02.192Z,11.80
2022-10-22T19:36:32.584Z,11.90
2022-10-22T19:39:01.849Z,11.90
2022-10-22T19:41:32.319Z,11.80
2022-10-22T19:44:01.271Z,11.80
2022-10-22T19:46:32.563Z,11.80
2022-10-22T19:49:03.930Z,11.70
2022-10-22T19:51:34.329Z,11.60
2022-10-22T19:54:04.233Z,11.60
2022-10-22T19:56:33.606Z,11.50
2022-10-22T19:59:01.736Z,11.40
2022-10-22T20:01:32.062Z,11.30
2022-10-22T20:04:01.888Z,11.20
2022-10-22T20:06:30.676Z,11.10
2022-10-22T20:08:58.808Z,11.20
2022-10-22T20:11:29.078Z,11.10
2022-10-22T20:13:58.249Z,11.10
2022-10-22T20:16:28.643Z,11.00
2022-10-22T20:19:02.216Z,10.90
2022-10-22T20:21:30.901Z,10.90
2022-10-22T20:23:59.222Z,10.80
2022-10-22T20:26:28.991Z,10.60
2022-10-22T20:28:57.761Z,10.50
2022-10-22T20:31:28.751Z,10.50
2022-10-22T20:33:58.781Z,10.40
2022-10-22T20:36:29.989Z,10.30
2022-10-22T20:39:01.358Z,10.20
2022-10-22T20:41:30.128Z,10.20
2022-10-22T20:43:58.490Z,10.10
2022-10-22T20:46:29.189Z,10.10
2022-10-22T20:49:00.659Z,10.00
2022-10-22T20:51:30.234Z,10.00
2022-10-22T20:53:58.400Z,9.90
2022-10-22T20:56:26.802Z,9.90
2022-10-22T20:59:04.309Z,9.80
2022-10-22T21:01:34.555Z,9.70
2022-10-22T21:04:02.983Z,9.70
2022-10-22T21:06:32.402Z,9.70
2022-10-22T21:09:00.599Z,9.60
2022-10-22T21:11:28.679Z,9.60
2022-10-22T21:13:56.756Z,9.60
2022-10-22T21:16:25.006Z,9.50
2022-10-22T21:18:52.972Z,9.50
2022-10-22T21:21:21.044Z,9.40
2022-10-22T21:23:51.386Z,9.40
2022-10-22T21:26:20.288Z,9.40
2022-10-22T21:28:49.077Z,9.40
2022-10-22T21:31:21.969Z,9.30
2022-10-22T21:33:51.083Z,9.30
2022-10-22T21:36:22.736Z,9.30
2022-10-22T21:38:53.158Z,9.30
2022-10-22T21:41:23.437Z,9.20
2022-10-22T21:43:51.947Z,9.20
2022-10-22T21:46:21.605Z,9.30
2022-10-22T21:48:54.025Z,9.30
2022-10-22T21:51:22.757Z,9.30
2022-10-22T21:56:27.562Z,9.30
2022-10-22T21:58:56.120Z,9.40
2022-10-22T22:01:24.336Z,9.40
2022-10-22T22:03:52.900Z,9.40
2022-10-22T22:06:22.816Z,9.30
2022-10-22T22:08:53.544Z,9.30
2022-10-22T22:11:24.217Z,9.20
2022-10-22T22:13:52.960Z,9.10
2022-10-22T22:16:27.112Z,9.10
2022-10-22T22:18:57.502Z,9.10
2022-10-22T22:21:26.013Z,9.10
2022-10-22T22:23:55.606Z,9.00
2022-10-22T22:26:28.635Z,9.00
2022-10-22T22:28:58.421Z,9.00
2022-10-22T22:31:29.009Z,9.10
2022-10-22T22:34:00.305Z,9.10
2022-10-22T22:36:28.647Z,9.00
2022-10-22T22:38:58.528Z,9.00
2022-10-22T22:41:26.694Z,9.00
2022-10-22T22:46:27.905Z,9.00
2022-10-22T22:48:56.183Z,9.10
2022-10-22T22:51:24.606Z,9.10
2022-10-22T22:53:53.060Z,9.10
2022-10-22T22:56:24.461Z,9.10
2022-10-22T22:58:53.063Z,9.10
2022-10-22T23:01:29.338Z,9.10
2022-10-22T23:03:58.887Z,9.10
2022-10-22T23:06:27.712Z,9.10
2022-10-22T23:08:57.246Z,9.20
2022-10-22T23:11:27.979Z,9.30
2022-10-22T23:13:58.334Z,9.30
2022-10-22T23:16:27.986Z,9.40
2022-10-22T23:18:57.083Z,9.40
2022-10-22T23:21:27.534Z,9.50
2022-10-22T23:23:57.751Z,9.60
2022-10-22T23:26:30.311Z,9.70
2022-10-22T23:29:01.914Z,9.70
2022-10-22T23:31:30.289Z,9.80
2022-10-22T23:33:58.628Z,9.90
2022-10-22T23:36:27.163Z,9.90
2022-10-22T23:38:55.803Z,9.80
2022-10-22T23:41:24.027Z,9.80
2022-10-22T23:43:53.458Z,9.90
2022-10-22T23:46:21.542Z,9.80
2022-10-22T23:48:49.813Z,9.70
2022-10-22T23:51:18.824Z,9.70
2022-10-22T23:53:47.946Z,9.60
2022-10-22T23:56:17.928Z,9.50
2022-10-22T23:58:46.382Z,9.40
